• Join FlightAware (Why Join?)
  • Login
  • US Flag 
12:57PM EDT


 

Airport Tracker/Info


-or-


 

Live Flight TrackerFlight Track Log ✈ ASA125 ✈ 12-Mar-2014 ✈ KSEA - PANC

Flight Track Log - Related Links

Times and Time Zones

All times are in EDT time to prevent confusion due to time zone crossing. See the ASA125 flight status page for this flight to view local times or setup timezone preferences in your user account.

Time Position Orientation Groundspeed Altitude Reporting Facility
EDT Latitude Longitude Course Direction KTS MPH feet Rate Location/Type
03:06AM 47.4656 -122.3069 321° Northwest 165 190 1,400  Level Seattle Center
03:07AM 47.4814 -122.3081 357° North 157 181 2,000 1,440 Climbing Seattle Center
03:07AM 47.4922 -122.3078 North 157 181 2,300 1,800 Climbing Seattle Center
03:08AM 47.5525 -122.3133 356° North 215 247 4,200 1,980 Climbing Seattle Center
03:09AM 47.6047 -122.3769 321° Northwest 246 283 6,300 2,400 Climbing Seattle Center
03:10AM 47.6550 -122.4514 315° West 256 295 9,100 2,340 Climbing Seattle Center
03:11AM 47.7331 -122.4486 North 283 326 11,100 1,860 Climbing Seattle Center
03:12AM 47.6273 -122.8927 321° Northwest  Level FlightAware Approximate
03:12AM 47.8028 -122.4914 338° Northwest 304 350 12,900  Level Seattle Center
03:13AM 47.8147 -122.6208 278° West 323 372 15,300 2,340 Climbing Seattle Center
03:14AM 47.8236 -122.7594 276° West 339 390 17,600 2,820 Climbing Seattle Center
03:15AM 47.8672 -122.8775 299° West 344 396 21,000 3,000 Climbing Seattle Center
03:16AM 47.9397 -122.9608 322° Northwest 334 384 23,700 2,340 Climbing Seattle Center
03:17AM 48.0097 -123.0447 321° Northwest 327 376 25,700 1,920 Climbing Seattle Center
03:18AM 48.0811 -123.1286 322° Northwest 327 376 27,600 1,560 Climbing Seattle Center
03:19AM 48.1519 -123.2158 321° Northwest 327 376 28,900 1,140 Climbing Seattle Center
03:20AM 48.2269 -123.3072 321° Northwest 340 391 29,900 1,020 Climbing Seattle Center
03:21AM 48.3167 -123.4167 321° Northwest 360 414 31,300 1,140 Climbing Vancouver Center
03:22AM 48.4000 -123.5167 321° Northwest 370 426 32,500 1,080 Climbing Vancouver Center
03:23AM 48.4833 -123.6167 322° Northwest 370 426 33,500 780 Climbing Vancouver Center
03:24AM 48.5500 -123.7167 315° West 370 426 34,100 600 Climbing Vancouver Center
03:25AM 48.6333 -123.8167 322° Northwest 380 437 34,800 720 Climbing Vancouver Center
03:26AM 48.7167 -123.9333 317° Northwest 390 449 35,600 600 Climbing Vancouver Center
03:27AM 48.8000 -124.0500 317° Northwest 400 460 36,000 180 Climbing Vancouver Center
03:28AM 48.9000 -124.1500 327° Northwest 410 472 36,000  Level Vancouver Center
03:29AM 48.9833 -124.2500 322° Northwest 400 460 36,000  Level Vancouver Center
03:30AM 49.0667 -124.3833 314° West 400 460 36,000  Level Vancouver Center
03:31AM 49.1500 -124.4833 322° Northwest 410 472 36,000  Level Vancouver Center
03:32AM 49.2333 -124.6000 318° Northwest 400 460 36,000  Level Vancouver Center
03:33AM 49.3333 -124.7000 327° Northwest 400 460 36,000  Level Vancouver Center
03:34AM 49.4167 -124.8000 322° Northwest 390 449 36,000  Level Vancouver Center
03:35AM 49.5000 -124.9333 314° West 400 460 36,000  Level Vancouver Center
03:36AM 49.5833 -125.0333 322° Northwest 400 460 36,000  Level Vancouver Center
03:37AM 49.6667 -125.1333 322° Northwest 400 460 36,000  Level Vancouver Center
03:38AM 49.7500 -125.2500 318° Northwest 400 460 36,000  Level Vancouver Center
03:39AM 49.8500 -125.3833 319° Northwest 410 472 36,000  Level Vancouver Center
03:40AM 49.9333 -125.4833 322° Northwest 410 472 36,000  Level Vancouver Center
03:41AM 50.0167 -125.5833 322° Northwest 410 472 36,000  Level Vancouver Center
03:42AM 50.0833 -125.7167 308° West 410 472 36,000  Level Vancouver Center
03:43AM 50.1833 -125.8333 323° Northwest 410 472 36,000  Level Vancouver Center
03:44AM 50.2667 -125.9333 323° Northwest 400 460 36,000  Level Vancouver Center
03:45AM 50.3500 -126.0500 318° Northwest 400 460 36,000  Level Vancouver Center
03:46AM 50.4500 -126.1833 320° Northwest 400 460 36,000  Level Vancouver Center
03:47AM 50.5333 -126.3000 318° Northwest 400 460 36,000  Level Vancouver Center
03:48AM 50.6167 -126.4000 323° Northwest 400 460 36,000  Level Vancouver Center
03:49AM 50.7000 -126.5167 318° Northwest 410 472 36,000  Level Vancouver Center
03:50AM 50.7667 -126.6500 308° West 400 460 36,000  Level Vancouver Center
03:51AM 50.8667 -126.7667 324° Northwest 400 460 36,000  Level Vancouver Center
03:52AM 50.9500 -126.8667 323° Northwest 400 460 36,000  Level Vancouver Center
03:53AM 51.0333 -127.0167 311° West 400 460 36,000  Level Vancouver Center
03:54AM 51.1167 -127.1167 323° Northwest 400 460 36,000  Level Vancouver Center
03:55AM 51.2000 -127.2333 319° Northwest 400 460 36,000  Level Vancouver Center
03:56AM 51.2667 -127.3500 312° West 400 460 36,000  Level Vancouver Center
03:57AM 51.3667 -127.4667 324° Northwest 400 460 36,000  Level Vancouver Center
03:58AM 51.4500 -127.6000 315° West 400 460 36,000  Level Vancouver Center
03:59AM 51.5333 -127.7167 319° Northwest 400 460 36,000  Level Vancouver Center
04:00AM 51.6000 -127.8333 313° West 410 472 36,000  Level Vancouver Center
04:01AM 51.6833 -127.9500 319° Northwest 410 472 36,000  Level Vancouver Center
04:02AM 51.7833 -128.0833 321° Northwest 410 472 36,000  Level Vancouver Center
04:03AM 51.8667 -128.2000 319° Northwest 410 472 36,000  Level Vancouver Center
04:04AM 51.9333 -128.3167 313° West 410 472 36,000  Level Vancouver Center
04:05AM 52.0167 -128.4333 319° Northwest 410 472 36,000  Level Vancouver Center
04:06AM 52.1000 -128.5833 312° West 400 460 36,000  Level Vancouver Center
04:07AM 52.2000 -128.7000 324° Northwest 410 472 36,000  Level Vancouver Center
04:08AM 52.2667 -128.8167 313° West 410 472 36,000  Level Vancouver Center
04:09AM 52.3500 -128.9667 312° West 410 472 36,000  Level Vancouver Center
04:10AM 52.4500 -129.0833 325° Northwest 410 472 36,000  Level Vancouver Center
04:11AM 52.5167 -129.2000 313° West 410 472 36,000  Level Vancouver Center
04:12AM 52.6000 -129.3500 312° West 410 472 36,000  Level Vancouver Center
04:13AM 52.7000 -129.4833 321° Northwest 410 472 36,000  Level Vancouver Center
04:14AM 52.7667 -129.6000 313° West 410 472 36,000  Level Vancouver Center
04:15AM 52.8500 -129.7500 313° West 410 472 36,000  Level Vancouver Center
04:16AM 52.9500 -129.8667 325° Northwest 410 472 36,000  Level Vancouver Center
04:17AM 53.0167 -130.0167 306° West 410 472 36,000  Level Vancouver Center
04:18AM 53.1000 -130.1333 320° Northwest 410 472 36,000  Level Vancouver Center
04:19AM 53.1833 -130.2667 316° Northwest 410 472 36,000  Level Vancouver Center
04:20AM 53.2667 -130.3833 320° Northwest 410 472 36,000  Level Vancouver Center
04:21AM 53.3500 -130.5333 313° West 410 472 36,000  Level Vancouver Center
04:22AM 53.4333 -130.6667 316° Northwest 410 472 36,000  Level Vancouver Center
04:23AM 53.5167 -130.8000 316° Northwest 420 483 36,000  Level Vancouver Center
04:24AM 53.5833 -130.9500 307° West 420 483 36,000  Level Vancouver Center
04:25AM 53.6833 -131.0667 325° Northwest 420 483 36,000  Level Vancouver Center
04:26AM 53.7500 -131.2333 304° West 420 483 36,000  Level Vancouver Center
04:27AM 53.8500 -131.3667 322° Northwest 420 483 36,000  Level Vancouver Center
04:28AM 53.9167 -131.5167 307° West 420 483 36,000  Level Vancouver Center
04:29AM 54.0000 -131.6500 317° Northwest 420 483 36,000  Level Vancouver Center
04:30AM 54.0833 -131.8000 313° West 420 483 36,000  Level Vancouver Center
04:31AM 54.1667 -131.9333 317° Northwest 420 483 36,000  Level Vancouver Center
04:32AM 54.2500 -132.0833 314° West 420 483 36,000  Level Vancouver Center
04:33AM 54.3333 -132.2167 317° Northwest 420 483 36,000  Level Vancouver Center
04:34AM 54.4167 -132.3833 311° West 420 483 36,000  Level Vancouver Center
04:35AM 54.4833 -132.5167 311° West 430 495 36,000  Level Vancouver Center
04:36AM 54.5833 -132.6500 322° Northwest 420 483 36,000  Level Vancouver Center
04:37AM 54.6500 -132.8167 305° West 420 483 36,000  Level Vancouver Center
04:38AM 54.7500 -132.9500 322° Northwest 420 483 36,000  Level Vancouver Center
04:39AM 54.8167 -133.1000 308° West 420 483 36,000  Level Vancouver Center
04:40AM 54.9000 -133.2500 314° West 430 495 36,000  Level Vancouver Center
04:41AM 55.0000 -133.4167 316° Northwest 430 495 36,000  Level Vancouver Center
04:42AM 55.0667 -133.5500 311° West 430 495 36,000  Level Vancouver Center
04:43AM 55.1500 -133.7167 311° West 430 495 36,000  Level Vancouver Center
04:44AM 55.2333 -133.8500 318° Northwest 430 495 36,000  Level Vancouver Center
04:45AM 55.3167 -134.0167 311° West 430 495 36,000  Level Vancouver Center
04:46AM 55.3833 -134.1833 305° West 430 495 36,000  Level Vancouver Center
04:47AM 55.4833 -134.3333 320° Northwest 430 495 36,000  Level Vancouver Center
04:48AM 55.5500 -134.4667 312° West 430 495 36,000  Level Vancouver Center
04:49AM 55.6333 -134.6333 312° West 430 495 36,000  Level Vancouver Center
04:50AM 55.7000 -134.8000 305° West 430 495 36,000  Level Vancouver Center
04:51AM 55.8000 -134.9500 320° Northwest 430 495 36,000  Level Vancouver Center
04:52AM 55.8833 -135.1167 312° West 440 506 36,000  Level Vancouver Center
04:53AM 55.9500 -135.2667 308° West 440 506 36,000  Level Vancouver Center
04:54AM 56.0333 -135.4333 312° West 440 506 36,000  Level Vancouver Center
04:55AM 56.1167 -135.6167 309° West 440 506 36,000  Level Vancouver Center
04:56AM 56.1833 -135.7500 312° West 440 506 36,000  Level Vancouver Center
04:57AM 56.2667 -135.9333 309° West 440 506 36,000  Level Vancouver Center
04:58AM 56.3500 -136.0833 315° West 440 506 36,000  Level Vancouver Center
04:59AM 56.4167 -136.2167 312° West 440 506 36,000  Level Vancouver Center
05:00AM 56.5000 -136.4000 310° West 440 506 36,000  Level Vancouver Center
05:01AM 56.5500 -136.4333 340° North 440 506 36,000  Level Anchorage Center
05:02AM 56.6667 -136.7333 305° West 440 506 36,000  Level Vancouver Center
05:03AM 56.7333 -136.9000 306° West 440 506 36,000  Level Vancouver Center
05:04AM 56.7833 -136.9333 340° North 440 506 36,000  Level Anchorage Center
05:05AM 56.8667 -137.1167 310° West 440 506 36,000  Level Anchorage Center
05:06AM 56.9500 -137.2833 313° West 440 506 36,000  Level Anchorage Center
05:07AM 57.0333 -137.4667 310° West 440 506 36,000  Level Anchorage Center
05:08AM 57.1000 -137.6333 306° West 440 506 36,000  Level Anchorage Center
05:09AM 57.1833 -137.8000 313° West 430 495 36,000  Level Anchorage Center
05:10AM 57.2667 -137.9833 310° West 440 506 36,000  Level Anchorage Center
05:11AM 57.3333 -138.1500 307° West 440 506 36,000  Level Anchorage Center
05:12AM 57.4167 -138.3333 310° West 450 518 36,000  Level Anchorage Center
05:13AM 57.5000 -138.5167 310° West 450 518 36,000  Level Anchorage Center
05:14AM 57.5667 -138.7000 304° West 440 506 36,000  Level Anchorage Center
05:15AM 57.6500 -138.8833 310° West 450 518 36,000  Level Anchorage Center
05:16AM 57.7167 -139.0500 307° West 450 518 36,000  Level Anchorage Center
05:17AM 57.8000 -139.2333 311° West 450 518 36,000  Level Anchorage Center
05:18AM 57.8833 -139.4167 311° West 450 518 36,000  Level Anchorage Center
05:19AM 57.9500 -139.6000 304° West 450 518 36,000  Level Anchorage Center
05:20AM 58.0333 -139.7833 311° West 450 518 36,000  Level Anchorage Center
05:21AM 58.1167 -139.9667 311° West 450 518 36,000  Level Anchorage Center
05:22AM 58.1833 -140.1667 302° West 450 518 36,000  Level Anchorage Center
05:23AM 58.2667 -140.3500 311° West 450 518 36,000  Level Anchorage Center
05:24AM 58.3333 -140.5500 302° West 440 506 36,000  Level Anchorage Center
05:25AM 58.4167 -140.7333 311° West 440 506 36,000  Level Anchorage Center
05:26AM 58.5000 -140.9167 311° West 450 518 36,000  Level Anchorage Center
05:27AM 58.5667 -141.1167 303° West 450 518 36,000  Level Anchorage Center
05:28AM 58.6500 -141.3167 309° West 450 518 36,000  Level Anchorage Center
05:29AM 58.7167 -141.5000 305° West 450 518 36,000  Level Anchorage Center
05:30AM 58.7833 -141.7000 303° West 440 506 36,000  Level Anchorage Center
05:31AM 58.8667 -141.9000 309° West 450 518 36,000  Level Anchorage Center
05:32AM 58.9333 -142.0833 305° West 450 518 36,000  Level Anchorage Center
05:33AM 59.0167 -142.2833 309° West 450 518 36,000  Level Anchorage Center
05:34AM 59.1000 -142.4833 309° West 450 518 36,000  Level Anchorage Center
05:35AM 59.1667 -142.6833 303° West 450 518 36,000  Level Anchorage Center
05:36AM 59.2500 -142.8833 309° West 460 529 36,000  Level Anchorage Center
05:37AM 59.3167 -143.1000 301° West 460 529 36,000  Level Anchorage Center
05:38AM 59.4000 -143.3000 309° West 450 518 36,000  Level Anchorage Center
05:39AM 59.4667 -143.5000 303° West 450 518 36,000  Level Anchorage Center
05:40AM 59.5500 -143.7167 307° West 450 518 36,000  Level Anchorage Center
05:41AM 59.6167 -143.9167 303° West 450 518 36,000  Level Anchorage Center
05:42AM 59.7000 -144.1167 310° West 450 518 36,000  Level Anchorage Center
05:43AM 59.7667 -144.3167 304° West 450 518 36,000  Level Anchorage Center
05:44AM 59.8333 -144.5333 302° West 460 529 36,000  Level Anchorage Center
05:45AM 59.9167 -144.7333 310° West 440 506 36,000  Level Anchorage Center
05:46AM 59.9833 -144.9333 304° West 450 518 36,000  Level Anchorage Center
05:47AM 60.0500 -145.1333 304° West 440 506 36,000  Level Anchorage Center
05:48AM 60.1167 -145.3500 302° West 440 506 36,000  Level Anchorage Center
05:49AM 60.2000 -145.5500 310° West 440 506 36,000  Level Anchorage Center
05:50AM 60.2667 -145.7667 302° West 450 518 36,000  Level Anchorage Center
05:51AM 60.3333 -145.9667 304° West 450 518 36,000  Level Anchorage Center
05:52AM 60.4000 -146.1667 304° West 450 518 36,000  Level Anchorage Center
05:53AM 60.4667 -146.3833 302° West 450 518 36,000  Level Anchorage Center
05:54AM 60.5500 -146.6333 304° West 450 518 36,000 -300 Level Anchorage Center
05:55AM 60.6167 -146.8500 302° West 450 518 35,500 -720 Descending Anchorage Center
05:56AM 60.6833 -147.0667 302° West 440 506 34,600 -1,740 Descending Anchorage Center
05:57AM 60.7500 -147.2667 304° West 440 506 32,100 -2,340 Descending Anchorage Center
05:58AM 60.8333 -147.5000 306° West 440 506 30,000 -1,980 Descending Anchorage Center
05:59AM 60.8833 -147.7000 297° West 420 483 28,200 -1,920 Descending Anchorage Center
06:00AM 60.9500 -147.9000 305° West 400 460 26,200 -1,860 Descending Anchorage Center
06:01AM 61.0000 -148.0500 305° West 390 449 24,500 -1,740 Descending Anchorage Center
06:02AM 61.0500 -148.2500 297° West 380 437 22,800 -1,740 Descending Anchorage Center
06:03AM 61.1000 -148.4333 299° West 370 426 21,000 -1,800 Descending Anchorage Center
06:05AM 61.1971 -148.7523 300° West  Level FlightAware Approximate
06:12AM 61.1667 -149.9833 243° Southwest  Level FlightAware Approximate
06:13AM 61.1741 -149.9982 243° Southwest  Level Estimated
06:14AM 61.1741 -149.9982 243° Southwest  Level Estimated
06:15AM 61.1741 -149.9982 243° Southwest  Level Estimated
06:16AM 61.1741 -149.9982 243° Southwest  Level Estimated
06:17AM 61.1741 -149.9982 243° Southwest  Level Estimated
06:18AM 61.1741 -149.9982 243° Southwest  Level Estimated
06:19AM 61.1741 -149.9982 243° Southwest  Level Estimated
06:20AM 61.1741 -149.9982 243° Southwest  Level Estimated
06:21AM 61.1741 -149.9982 243° Southwest  Level Estimated
06:22AM 61.1741 -149.9982 243° Southwest  Level Estimated
06:23AM 61.1741 -149.9982 243° Southwest  Level Estimated
06:24AM 61.1741 -149.9982 243° Southwest  Level Estimated
06:25AM 61.1741 -149.9982 243° Southwest  Level Estimated
06:26AM 61.1741 -149.9982 243° Southwest  Level Estimated
06:27AM 61.1741 -149.9982 243° Southwest  Level Estimated